createdAt,value
2019-04-20T00:00:37.103Z,56.04
2019-04-20T00:03:09.693Z,57.03
2019-04-20T00:05:43.427Z,56.42
2019-04-20T00:08:23.389Z,56.41
2019-04-20T00:10:57.027Z,57.24
2019-04-20T00:13:37.872Z,56.95
2019-04-20T00:16:00.014Z,56.55
2019-04-20T00:18:41.092Z,56.96
2019-04-20T00:21:24.802Z,56.99
2019-04-20T00:24:01.031Z,57.14
2019-04-20T00:27:06.474Z,57.41
2019-04-20T00:29:24.893Z,57.63
2019-04-20T00:31:52.329Z,57.69
2019-04-20T00:34:24.756Z,57.49
2019-04-20T00:36:51.959Z,57.66
2019-04-20T00:39:25.864Z,57.65
2019-04-20T00:42:03.426Z,57.32
2019-04-20T00:44:37.358Z,57.90
2019-04-20T00:47:16.912Z,56.99
2019-04-20T00:49:52.754Z,57.80
2019-04-20T00:52:47.187Z,57.08
2019-04-20T00:54:49.950Z,57.25
2019-04-20T00:57:34.696Z,57.53
2019-04-20T01:00:17.613Z,58.00
2019-04-20T01:02:43.362Z,57.66
2019-04-20T01:05:43.266Z,57.75
2019-04-20T01:08:00.587Z,58.10
2019-04-20T01:10:39.500Z,58.14
2019-04-20T01:13:15.070Z,58.11
2019-04-20T01:15:51.595Z,58.06
2019-04-20T01:18:17.580Z,58.41
2019-04-20T01:20:51.389Z,58.23
2019-04-20T01:23:34.075Z,58.23
2019-04-20T01:26:05.507Z,58.62
2019-04-20T01:28:46.815Z,58.73
2019-04-20T01:31:18.448Z,58.70
2019-04-20T01:37:00.972Z,58.52
2019-04-20T01:39:58.615Z,58.20
2019-04-20T01:42:38.291Z,58.63
2019-04-20T01:45:30.797Z,59.25
2019-04-20T01:48:01.233Z,59.31
2019-04-20T01:54:06.292Z,59.84
2019-04-20T01:56:51.982Z,59.37
2019-04-20T01:59:51.756Z,59.77
2019-04-20T02:02:26.072Z,59.68
2019-04-20T02:05:11.465Z,60.28
2019-04-20T02:07:55.412Z,60.26
2019-04-20T02:10:39.526Z,60.54
2019-04-20T02:13:19.865Z,60.62
2019-04-20T02:15:56.365Z,60.97
2019-04-20T02:18:36.465Z,60.87
2019-04-20T02:21:19.647Z,60.63
2019-04-20T02:23:46.219Z,60.48
2019-04-20T02:26:11.108Z,61.13
2019-04-20T02:29:15.797Z,61.07
2019-04-20T02:39:51.404Z,61.12
2019-04-20T02:42:34.239Z,61.01
2019-04-20T02:45:11.207Z,61.65
2019-04-20T02:47:41.289Z,61.61
2019-04-20T02:50:15.141Z,61.49
2019-04-20T02:52:51.033Z,61.09
2019-04-20T02:55:36.384Z,61.11
2019-04-20T03:00:25.111Z,61.64
2019-04-20T03:02:46.123Z,62.02
2019-04-20T03:05:21.625Z,68.11
2019-04-20T03:08:05.252Z,66.39
2019-04-20T03:10:46.352Z,61.07
2019-04-20T03:13:15.425Z,54.96
2019-04-20T03:15:51.886Z,49.38
2019-04-20T03:18:19.313Z,48.49
2019-04-20T03:21:00.818Z,48.78
2019-04-20T03:23:37.228Z,49.12
2019-04-20T03:26:19.059Z,49.58
2019-04-20T03:28:54.092Z,49.97
2019-04-20T03:31:59.583Z,50.42
2019-04-20T03:36:53.759Z,51.64
2019-04-20T03:39:18.084Z,52.20
2019-04-20T03:41:43.064Z,52.64
2019-04-20T03:44:15.649Z,53.24
2019-04-20T03:46:52.240Z,53.81
2019-04-20T03:49:42.302Z,54.18
2019-04-20T03:52:23.341Z,54.65
2019-04-20T03:55:16.435Z,55.06
2019-04-20T03:58:15.307Z,55.74
2019-04-20T04:00:59.924Z,55.97
2019-04-20T04:03:53.384Z,56.41
2019-04-20T04:06:17.781Z,56.75
2019-04-20T04:08:58.709Z,56.84
2019-04-20T04:11:35.119Z,57.28
2019-04-20T04:13:52.525Z,57.74
2019-04-20T04:16:34.172Z,57.09
2019-04-20T04:19:10.025Z,57.35
2019-04-20T04:21:48.946Z,57.35
2019-04-20T04:24:22.592Z,57.71
2019-04-20T04:27:00.765Z,57.12
2019-04-20T04:29:40.128Z,57.51
2019-04-20T04:32:20.665Z,57.71
2019-04-20T04:34:43.277Z,57.41
2019-04-20T04:37:20.363Z,57.00
2019-04-20T04:40:06.099Z,56.73
2019-04-20T04:42:36.627Z,56.31
2019-04-20T04:44:53.686Z,56.05
2019-04-20T04:47:19.835Z,56.04
2019-04-20T04:49:59.966Z,55.74
2019-04-20T04:52:36.030Z,55.75
2019-04-20T04:55:11.268Z,55.74
2019-04-20T04:57:36.691Z,55.49
2019-04-20T05:00:16.647Z,55.18
2019-04-20T05:02:50.633Z,55.27
2019-04-20T05:05:41.359Z,55.05
2019-04-20T05:08:08.823Z,55.05
2019-04-20T05:10:33.015Z,54.68
2019-04-20T05:13:07.135Z,54.86
2019-04-20T05:15:52.542Z,54.33
2019-04-20T05:18:41.788Z,54.40
2019-04-20T05:21:11.837Z,53.22
2019-04-20T05:23:37.522Z,52.98
2019-04-20T05:26:30.998Z,53.02
2019-04-20T05:28:59.098Z,52.87
2019-04-20T05:31:30.906Z,52.07
2019-04-20T05:34:20.571Z,50.26
2019-04-20T05:36:49.273Z,48.76
2019-04-20T05:39:35.137Z,47.85
2019-04-20T05:42:06.179Z,47.14
2019-04-20T05:44:42.747Z,46.76
2019-04-20T05:47:11.311Z,45.06
2019-04-20T05:49:46.797Z,45.02
2019-04-20T05:52:47.227Z,45.90
2019-04-20T05:54:56.238Z,45.16
2019-04-20T05:57:34.923Z,45.72
2019-04-20T06:00:08.336Z,44.97
2019-04-20T06:02:42.161Z,45.11
2019-04-20T06:05:20.924Z,43.76
2019-04-20T06:07:50.595Z,43.69
2019-04-20T06:10:27.395Z,43.93
2019-04-20T06:12:57.843Z,44.43
2019-04-20T06:15:30.878Z,43.23
2019-04-20T06:18:06.623Z,43.60
2019-04-20T06:20:47.844Z,43.65
2019-04-20T06:23:47.487Z,43.28
2019-04-20T06:26:33.538Z,43.93
2019-04-20T06:28:43.874Z,42.83
2019-04-20T06:31:28.212Z,42.45
2019-04-20T06:42:19.339Z,42.00
2019-04-20T06:44:41.191Z,42.27
2019-04-20T06:47:30.686Z,42.19
2019-04-20T06:49:42.463Z,40.73
2019-04-20T06:55:35.008Z,41.48
2019-04-20T06:57:45.069Z,40.13
2019-04-20T07:00:30.803Z,39.72
2019-04-20T07:02:56.409Z,38.68
2019-04-20T07:05:28.547Z,39.91
2019-04-20T07:08:16.670Z,40.09
2019-04-20T07:10:39.377Z,40.07
2019-04-20T07:13:07.718Z,39.54
2019-04-20T07:15:40.186Z,39.14
2019-04-20T07:18:23.371Z,38.27
2019-04-20T07:21:16.096Z,38.99
2019-04-20T07:23:32.745Z,38.80
2019-04-20T07:26:12.737Z,38.37
2019-04-20T07:28:47.533Z,38.84
2019-04-20T07:31:14.128Z,37.20
2019-04-20T07:33:52.171Z,36.30
2019-04-20T07:36:24.441Z,37.33
2019-04-20T07:39:04.210Z,37.09
2019-04-20T07:41:43.339Z,36.08
2019-04-20T07:44:10.205Z,35.82
2019-04-20T07:46:57.906Z,35.46
2019-04-20T07:49:18.138Z,36.46
2019-04-20T07:51:35.573Z,34.78
2019-04-20T07:54:28.493Z,35.63
2019-04-20T07:56:58.711Z,35.90
2019-04-20T07:59:27.268Z,34.74
2019-04-20T08:02:16.236Z,35.05
2019-04-20T08:04:49.974Z,35.38
2019-04-20T08:07:07.402Z,34.17
2019-04-20T08:09:46.511Z,34.04
2019-04-20T08:12:49.906Z,33.11
2019-04-20T08:15:24.007Z,34.16
2019-04-20T08:17:58.594Z,33.96
2019-04-20T08:20:25.812Z,33.04
2019-04-20T08:23:12.329Z,31.95
2019-04-20T08:25:30.583Z,33.02
2019-04-20T08:27:57.088Z,30.46
2019-04-20T08:31:06.576Z,29.12
2019-04-20T08:33:50.286Z,30.95
2019-04-20T08:36:22.863Z,30.28
2019-04-20T08:41:20.573Z,31.07
2019-04-20T08:44:09.842Z,31.48
2019-04-20T08:46:47.004Z,31.99
2019-04-20T08:49:13.208Z,29.59
2019-04-20T08:51:49.780Z,30.45
2019-04-20T08:54:20.102Z,29.49
2019-04-20T08:56:43.345Z,30.49
2019-04-20T08:59:09.498Z,30.34
2019-04-20T09:01:44.493Z,30.37
2019-04-20T09:04:24.232Z,30.06
2019-04-20T09:07:04.009Z,29.65
2019-04-20T09:09:49.502Z,29.67
2019-04-20T09:12:15.860Z,27.17
2019-04-20T09:14:38.488Z,26.96
2019-04-20T09:17:21.211Z,28.30
2019-04-20T09:19:56.904Z,29.30
2019-04-20T09:22:40.960Z,27.50
2019-04-20T09:27:52.383Z,26.41
2019-04-20T09:30:33.153Z,26.47
2019-04-20T09:33:35.999Z,26.79
2019-04-20T09:36:02.352Z,26.42
2019-04-20T09:38:40.822Z,25.61
2019-04-20T09:41:27.560Z,26.28
2019-04-20T09:43:36.867Z,25.68
2019-04-20T09:46:10.272Z,24.13
2019-04-20T09:48:53.593Z,25.18
2019-04-20T09:51:37.849Z,24.42
2019-04-20T09:54:06.465Z,24.56
2019-04-20T09:56:39.500Z,24.93
2019-04-20T09:59:25.137Z,24.01
2019-04-20T10:01:43.674Z,23.79
2019-04-20T10:04:13.011Z,23.66
2019-04-20T10:06:47.557Z,24.02
2019-04-20T10:09:27.990Z,23.94
2019-04-20T10:11:55.404Z,24.29
2019-04-20T10:14:28.912Z,23.85
2019-04-20T10:17:02.193Z,23.01
2019-04-20T10:19:39.121Z,23.22
2019-04-20T10:22:11.125Z,23.51
2019-04-20T10:24:45.937Z,23.40
2019-04-20T10:27:18.746Z,23.08
2019-04-20T10:29:51.615Z,23.43
2019-04-20T10:32:33.080Z,23.68
2019-04-20T10:35:00.831Z,22.84
2019-04-20T10:37:35.484Z,23.39
2019-04-20T10:40:08.689Z,23.52
2019-04-20T10:42:41.858Z,23.38
2019-04-20T10:45:15.042Z,23.24
2019-04-20T10:47:47.795Z,23.31
2019-04-20T10:50:20.976Z,23.73
2019-04-20T10:52:54.043Z,24.45
2019-04-20T10:55:27.266Z,23.95
2019-04-20T10:58:00.130Z,24.45
2019-04-20T11:00:45.914Z,23.88
2019-04-20T11:03:19.739Z,22.63
2019-04-20T11:05:53.043Z,23.52
2019-04-20T11:08:26.578Z,22.53
2019-04-20T11:11:09.282Z,22.74
2019-04-20T11:13:35.270Z,23.74
2019-04-20T11:16:08.597Z,22.73
2019-04-20T11:18:41.604Z,21.14
2019-04-20T11:21:15.468Z,21.92
2019-04-20T11:23:49.928Z,21.19
2019-04-20T11:26:24.364Z,20.56
2019-04-20T11:28:57.982Z,21.56
2019-04-20T11:31:37.398Z,21.64
2019-04-20T11:34:05.975Z,21.69
2019-04-20T11:36:39.213Z,21.19
2019-04-20T11:39:14.587Z,20.79
2019-04-20T11:41:47.697Z,21.19
2019-04-20T11:44:20.370Z,22.41
2019-04-20T11:46:52.895Z,20.70
2019-04-20T11:49:25.771Z,21.01
2019-04-20T11:51:59.492Z,20.89
2019-04-20T11:54:32.511Z,22.00
2019-04-20T11:57:05.348Z,22.04
2019-04-20T11:59:39.081Z,22.54
2019-04-20T12:02:25.027Z,22.08
2019-04-20T12:05:10.034Z,21.94
2019-04-20T12:07:35.229Z,21.85
2019-04-20T12:10:14.842Z,20.94
2019-04-20T12:12:48.687Z,21.61
2019-04-20T12:15:18.833Z,22.02
2019-04-20T12:17:51.690Z,22.37
2019-04-20T12:20:24.991Z,22.07
2019-04-20T12:22:58.164Z,22.26
2019-04-20T12:25:33.331Z,22.10
2019-04-20T12:28:05.725Z,21.63
2019-04-20T12:30:39.756Z,22.31
2019-04-20T12:33:13.577Z,21.36
2019-04-20T12:35:47.657Z,20.87
2019-04-20T12:38:21.068Z,20.27
2019-04-20T12:40:53.950Z,19.82
2019-04-20T12:43:27.763Z,19.75
2019-04-20T12:46:02.091Z,20.44
2019-04-20T12:48:35.522Z,21.60
2019-04-20T12:51:08.235Z,21.94
2019-04-20T12:53:40.866Z,21.22
2019-04-20T12:56:14.654Z,20.46
2019-04-20T12:58:47.525Z,21.65
2019-04-20T13:01:21.993Z,21.50
2019-04-20T13:03:55.338Z,21.26
2019-04-20T13:06:29.925Z,22.03
2019-04-20T13:09:05.701Z,22.06
2019-04-20T13:11:50.753Z,22.05
2019-04-20T13:14:50.591Z,22.58
2019-04-20T13:17:24.110Z,22.42
2019-04-20T13:19:57.507Z,22.49
2019-04-20T13:22:30.865Z,22.79
2019-04-20T13:25:05.260Z,22.38
2019-04-20T13:27:38.889Z,22.34
2019-04-20T13:30:13.225Z,22.59
2019-04-20T13:32:47.799Z,21.70
2019-04-20T13:35:20.660Z,21.45
2019-04-20T13:37:54.134Z,21.01
2019-04-20T13:40:27.985Z,20.30
2019-04-20T13:43:01.672Z,21.63
2019-04-20T13:45:37.030Z,22.16
2019-04-20T13:48:11.016Z,21.77
2019-04-20T13:50:44.228Z,20.56
2019-04-20T13:53:17.078Z,19.61
2019-04-20T13:55:49.984Z,20.24
2019-04-20T13:58:40.639Z,19.85
2019-04-20T14:01:18.834Z,19.19
2019-04-20T14:04:10.413Z,19.01
2019-04-20T14:06:44.070Z,19.05
2019-04-20T14:09:17.194Z,19.64
2019-04-20T14:11:49.741Z,19.78
2019-04-20T14:14:23.440Z,20.17
2019-04-20T14:16:56.985Z,20.20
2019-04-20T14:19:29.530Z,20.20
2019-04-20T14:22:02.315Z,20.72
2019-04-20T14:24:35.055Z,20.35
2019-04-20T14:27:08.794Z,20.77
2019-04-20T14:29:43.112Z,21.45
2019-04-20T14:32:16.820Z,21.61
2019-04-20T14:34:49.566Z,22.13
2019-04-20T14:37:22.685Z,22.03
2019-04-20T14:39:56.443Z,21.70
2019-04-20T14:42:37.380Z,21.96
2019-04-20T14:45:06.766Z,22.02
2019-04-20T14:47:39.623Z,21.68
2019-04-20T14:50:14.025Z,22.11
2019-04-20T14:52:47.231Z,22.52
2019-04-20T14:55:21.148Z,23.63
2019-04-20T14:57:55.466Z,23.39
2019-04-20T15:00:51.009Z,24.12
2019-04-20T15:03:35.408Z,23.99
2019-04-20T15:06:07.444Z,23.74
2019-04-20T15:08:40.780Z,23.97
2019-04-20T15:11:14.789Z,23.90
2019-04-20T15:13:47.225Z,24.20
2019-04-20T15:16:20.339Z,24.30
2019-04-20T15:18:56.460Z,23.16
2019-04-20T15:21:31.484Z,23.98
2019-04-20T15:24:05.501Z,23.91
2019-04-20T15:26:38.690Z,23.90
2019-04-20T15:29:12.511Z,23.88
2019-04-20T15:31:45.975Z,23.96
2019-04-20T15:34:19.177Z,24.04
2019-04-20T15:36:52.033Z,24.24
2019-04-20T15:39:25.280Z,24.26
2019-04-20T15:41:58.886Z,24.41
2019-04-20T15:44:31.648Z,24.60
2019-04-20T15:47:04.254Z,24.60
2019-04-20T15:49:38.023Z,24.73
2019-04-20T15:52:12.425Z,24.93
2019-04-20T15:54:45.567Z,24.95
2019-04-20T15:57:23.293Z,24.96
2019-04-20T15:59:52.755Z,25.33
2019-04-20T16:02:36.356Z,24.79
2019-04-20T16:05:24.396Z,24.80
2019-04-20T16:08:01.956Z,25.25
2019-04-20T16:10:32.903Z,25.22
2019-04-20T16:13:18.219Z,25.31
2019-04-20T16:15:40.021Z,25.56
2019-04-20T16:18:13.469Z,25.40
2019-04-20T16:20:56.603Z,25.47
2019-04-20T16:23:22.743Z,24.66
2019-04-20T16:25:57.637Z,24.60
2019-04-20T16:28:31.933Z,24.34
2019-04-20T16:31:08.031Z,24.60
2019-04-20T16:33:39.628Z,24.52
2019-04-20T16:36:12.429Z,24.60
2019-04-20T16:38:45.610Z,24.80
2019-04-20T16:41:18.596Z,24.75
2019-04-20T16:43:51.693Z,24.79
2019-04-20T16:46:25.692Z,25.01
2019-04-20T16:48:59.038Z,24.95
2019-04-20T16:51:31.765Z,25.50
2019-04-20T16:54:05.684Z,25.16
2019-04-20T16:56:39.890Z,25.01
2019-04-20T16:59:14.215Z,25.23
2019-04-20T17:01:48.512Z,25.02
2019-04-20T17:04:24.017Z,25.01
2019-04-20T17:07:14.269Z,24.70
2019-04-20T17:09:49.672Z,24.95
2019-04-20T17:12:23.758Z,25.07
2019-04-20T17:14:57.796Z,24.98
2019-04-20T17:17:31.505Z,25.30
2019-04-20T17:20:07.215Z,25.54
2019-04-20T17:22:40.359Z,25.83
2019-04-20T17:25:16.315Z,25.44
2019-04-20T17:27:49.167Z,25.92
2019-04-20T17:30:25.544Z,26.11
2019-04-20T17:32:59.978Z,26.59
2019-04-20T17:35:43.507Z,26.59
2019-04-20T17:38:08.851Z,26.81
2019-04-20T17:41:01.539Z,26.95
2019-04-20T17:43:25.215Z,27.00
2019-04-20T17:46:02.212Z,27.57
2019-04-20T17:48:37.172Z,27.58
2019-04-20T17:51:25.418Z,28.49
2019-04-20T17:53:44.962Z,28.31
2019-04-20T17:56:12.003Z,28.72
2019-04-20T17:58:46.092Z,29.75
2019-04-20T18:01:36.060Z,29.79
2019-04-20T18:04:29.663Z,29.80
2019-04-20T18:06:47.871Z,30.19
2019-04-20T18:09:34.409Z,29.89
2019-04-20T18:11:49.975Z,30.69
2019-04-20T18:14:42.103Z,31.75
2019-04-20T18:17:10.444Z,32.07
2019-04-20T18:19:34.711Z,32.28
2019-04-20T18:22:12.298Z,33.35
2019-04-20T18:25:09.161Z,32.88
2019-04-20T18:27:38.350Z,33.56
2019-04-20T18:30:11.932Z,33.98
2019-04-20T18:32:33.701Z,34.73
2019-04-20T18:35:10.393Z,35.62
2019-04-20T18:37:44.189Z,35.81
2019-04-20T18:40:28.977Z,36.49
2019-04-20T18:43:03.959Z,37.27
2019-04-20T18:45:42.390Z,37.63
2019-04-20T18:48:16.030Z,37.81
2019-04-20T18:50:41.872Z,37.47
2019-04-20T18:53:16.657Z,37.63
2019-04-20T18:55:49.576Z,38.40
2019-04-20T18:58:20.388Z,38.78
2019-04-20T19:00:54.182Z,38.63
2019-04-20T19:03:33.725Z,39.80
2019-04-20T19:06:02.201Z,40.23
2019-04-20T19:08:40.507Z,41.04
2019-04-20T19:11:14.368Z,41.90
2019-04-20T19:13:47.760Z,41.52
2019-04-20T19:16:34.773Z,40.33
2019-04-20T19:19:17.905Z,40.36
2019-04-20T19:21:40.277Z,40.73
2019-04-20T19:24:16.290Z,41.76
2019-04-20T19:26:51.530Z,41.96
2019-04-20T19:29:31.300Z,42.56
2019-04-20T19:32:11.552Z,43.02
2019-04-20T19:34:45.412Z,42.94
2019-04-20T19:37:15.900Z,39.02
2019-04-20T19:39:53.258Z,38.96
2019-04-20T19:42:31.806Z,39.05
2019-04-20T19:45:02.019Z,38.98
2019-04-20T19:47:42.931Z,39.65
2019-04-20T19:50:31.308Z,38.64
2019-04-20T19:53:05.759Z,40.65
2019-04-20T19:55:25.853Z,41.76
2019-04-20T19:57:59.375Z,41.16
2019-04-20T20:00:24.873Z,41.77
2019-04-20T20:02:57.731Z,41.83
2019-04-20T20:05:37.435Z,42.57
2019-04-20T20:08:12.812Z,42.63
2019-04-20T20:10:43.744Z,42.35
2019-04-20T20:13:14.977Z,42.96
2019-04-20T20:15:52.589Z,44.03
2019-04-20T20:18:35.355Z,43.87
2019-04-20T20:21:12.379Z,44.06
2019-04-20T20:23:32.165Z,44.12
2019-04-20T20:26:07.184Z,44.24
2019-04-20T20:28:45.472Z,44.10
2019-04-20T20:31:24.557Z,44.59
2019-04-20T20:34:03.042Z,44.64
2019-04-20T20:36:28.939Z,44.80
2019-04-20T20:39:04.506Z,44.32
2019-04-20T20:41:44.939Z,44.33
2019-04-20T20:44:21.207Z,45.04
2019-04-20T20:46:55.337Z,45.60
2019-04-20T20:49:33.172Z,45.76
2019-04-20T20:52:09.792Z,46.10
2019-04-20T20:54:40.412Z,46.39
2019-04-20T20:57:06.877Z,46.12
2019-04-20T20:59:42.982Z,46.18
2019-04-20T21:02:15.845Z,45.42
2019-04-20T21:04:42.160Z,46.29
2019-04-20T21:07:16.337Z,46.21
2019-04-20T21:09:50.409Z,47.53
2019-04-20T21:12:24.899Z,47.68
2019-04-20T21:15:00.279Z,47.45
2019-04-20T21:17:41.727Z,48.29
2019-04-20T21:20:27.591Z,49.08
2019-04-20T21:23:03.875Z,48.43
2019-04-20T21:25:33.470Z,47.95
2019-04-20T21:28:00.616Z,49.75
2019-04-20T21:30:41.152Z,49.68
2019-04-20T21:33:09.432Z,49.94
2019-04-20T21:35:47.044Z,50.52
2019-04-20T21:38:18.542Z,50.72
2019-04-20T21:41:02.129Z,51.22
2019-04-20T21:43:29.939Z,51.54
2019-04-20T21:46:04.586Z,51.59
2019-04-20T21:48:51.821Z,51.84
2019-04-20T21:51:25.732Z,51.85
2019-04-20T21:53:44.164Z,51.43
2019-04-20T21:56:17.726Z,51.68
2019-04-20T21:58:56.577Z,53.03
2019-04-20T22:01:32.350Z,53.26
2019-04-20T22:04:00.496Z,53.17
2019-04-20T22:06:34.259Z,53.64
2019-04-20T22:09:12.600Z,53.64
2019-04-20T22:11:47.477Z,53.79
2019-04-20T22:14:24.272Z,54.31
2019-04-20T22:16:56.828Z,55.05
2019-04-20T22:19:38.756Z,54.61
2019-04-20T22:22:15.139Z,55.20
2019-04-20T22:24:53.921Z,55.37
2019-04-20T22:27:19.739Z,55.00
2019-04-20T22:29:46.540Z,55.02
2019-04-20T22:32:21.855Z,55.96
2019-04-20T22:34:59.882Z,56.00
2019-04-20T22:37:30.496Z,56.30
2019-04-20T22:40:05.194Z,56.33
2019-04-20T22:42:46.538Z,56.40
2019-04-20T22:45:15.473Z,56.96
2019-04-20T22:47:48.175Z,57.35
2019-04-20T22:50:33.971Z,57.21
2019-04-20T22:53:12.359Z,57.23
2019-04-20T22:55:54.915Z,57.71
2019-04-20T22:58:19.437Z,57.66
2019-04-20T23:00:49.065Z,57.60
2019-04-20T23:03:14.606Z,57.26
2019-04-20T23:05:48.912Z,57.68
2019-04-20T23:08:22.414Z,58.45
2019-04-20T23:10:55.629Z,58.80
2019-04-20T23:13:35.121Z,59.14
2019-04-20T23:16:04.437Z,59.16
2019-04-20T23:18:38.230Z,59.50
2019-04-20T23:21:14.379Z,59.97
2019-04-20T23:23:45.712Z,59.61
2019-04-20T23:26:25.550Z,60.25
2019-04-20T23:28:57.080Z,59.53
2019-04-20T23:31:29.079Z,59.26
2019-04-20T23:34:12.378Z,60.02
2019-04-20T23:36:41.729Z,60.22
2019-04-20T23:39:12.865Z,60.57
2019-04-20T23:41:53.727Z,60.81
2019-04-20T23:44:23.115Z,60.86
2019-04-20T23:47:09.747Z,61.28
2019-04-20T23:49:54.145Z,61.20
2019-04-20T23:52:39.019Z,61.73
2019-04-20T23:54:53.609Z,61.52
2019-04-20T23:57:19.825Z,61.76
2019-04-20T23:59:53.781Z,69.63
